createdAt,value
2019-03-23T00:00:10.529Z,70.00
2019-03-23T00:02:40.010Z,65.97
2019-03-23T00:05:09.431Z,82.67
2019-03-23T00:07:38.759Z,62.80
2019-03-23T00:10:08.294Z,84.20
2019-03-23T00:12:37.725Z,79.37
2019-03-23T00:15:07.991Z,56.80
2019-03-23T00:17:37.669Z,68.80
2019-03-23T00:20:07.420Z,58.80
2019-03-23T00:22:37.979Z,69.30
2019-03-23T00:25:07.720Z,60.63
2019-03-23T00:27:39.431Z,62.10
2019-03-23T00:30:09.870Z,57.03
2019-03-23T00:32:39.910Z,88.23
2019-03-23T00:35:09.871Z,65.53
2019-03-23T00:37:39.473Z,76.57
2019-03-23T00:40:09.360Z,66.47
2019-03-23T00:42:38.874Z,67.17
2019-03-23T00:45:09.222Z,75.30
2019-03-23T00:47:38.846Z,68.40
2019-03-23T00:50:08.367Z,66.80
2019-03-23T00:52:37.951Z,77.43
2019-03-23T00:55:08.132Z,78.07
2019-03-23T00:57:37.390Z,67.93
2019-03-23T01:00:08.002Z,79.83
2019-03-23T01:02:37.520Z,71.80
2019-03-23T01:05:07.284Z,82.43
2019-03-23T01:07:37.746Z,85.70
2019-03-23T01:10:08.242Z,70.73
2019-03-23T01:12:37.578Z,74.50
2019-03-23T01:15:08.226Z,72.40
2019-03-23T01:17:37.880Z,80.53
2019-03-23T01:20:08.122Z,78.77
2019-03-23T01:22:37.369Z,76.80
2019-03-23T01:25:07.489Z,77.73
2019-03-23T01:27:36.884Z,77.93
2019-03-23T01:30:08.887Z,74.93
2019-03-23T01:32:38.618Z,61.80
2019-03-23T01:35:09.076Z,76.40
2019-03-23T01:37:38.357Z,75.23
2019-03-23T01:40:07.763Z,72.53
2019-03-23T01:42:37.106Z,83.57
2019-03-23T01:45:07.282Z,77.73
2019-03-23T01:47:36.549Z,82.95
2019-03-23T01:50:06.303Z,90.13
2019-03-23T01:52:35.970Z,89.93
2019-03-23T01:55:05.950Z,89.40
2019-03-23T01:57:35.227Z,91.77
2019-03-23T02:00:05.782Z,95.53
2019-03-23T02:02:35.240Z,84.47
2019-03-23T02:05:05.050Z,113.10
2019-03-23T02:07:36.014Z,93.43
2019-03-23T02:10:06.476Z,89.33
2019-03-23T02:12:35.750Z,98.00
2019-03-23T02:15:05.760Z,94.13
2019-03-23T02:17:36.022Z,97.50
2019-03-23T02:20:06.201Z,96.77
2019-03-23T02:22:35.635Z,83.92
2019-03-23T02:25:06.109Z,103.07
2019-03-23T02:27:35.616Z,100.37
2019-03-23T02:30:05.626Z,121.43
2019-03-23T02:32:37.979Z,106.50
2019-03-23T02:35:08.040Z,127.53
2019-03-23T02:37:37.370Z,134.27
2019-03-23T02:40:07.402Z,106.27
2019-03-23T02:42:36.950Z,111.30
2019-03-23T02:45:07.435Z,128.50
2019-03-23T02:47:36.994Z,118.27
2019-03-23T02:50:07.327Z,129.37
2019-03-23T02:52:37.013Z,157.90
2019-03-23T02:55:06.887Z,105.20
2019-03-23T02:57:36.188Z,145.20
2019-03-23T03:00:07.328Z,141.33
2019-03-23T03:02:36.992Z,169.23
2019-03-23T03:05:07.519Z,127.30
2019-03-23T03:07:42.369Z,147.97
2019-03-23T03:10:08.604Z,132.87
2019-03-23T03:12:37.889Z,150.93
2019-03-23T03:15:07.575Z,197.87
2019-03-23T03:17:37.230Z,138.77
2019-03-23T03:20:07.432Z,146.13
2019-03-23T03:22:37.071Z,126.90
2019-03-23T03:25:08.345Z,147.97
2019-03-23T03:27:38.923Z,93.37
2019-03-23T03:30:08.825Z,177.03
2019-03-23T03:32:38.360Z,139.10
2019-03-23T03:35:07.957Z,124.17
2019-03-23T03:37:37.263Z,120.13
2019-03-23T03:40:07.277Z,80.30
2019-03-23T03:42:36.479Z,64.47
2019-03-23T03:45:05.921Z,80.53
2019-03-23T03:47:35.180Z,115.77
2019-03-23T03:50:04.950Z,107.47
2019-03-23T03:52:34.271Z,74.53
2019-03-23T03:55:03.645Z,106.03
2019-03-23T03:57:32.875Z,94.90
2019-03-23T04:00:02.218Z,90.63
2019-03-23T04:02:31.551Z,71.40
2019-03-23T04:05:00.956Z,76.03
2019-03-23T04:07:30.323Z,119.67
2019-03-23T04:10:00.597Z,96.75
2019-03-23T04:12:30.211Z,91.80
2019-03-23T04:14:59.455Z,103.37
2019-03-23T04:17:29.779Z,60.93
2019-03-23T04:19:59.001Z,102.50
2019-03-23T04:22:28.441Z,80.87
2019-03-23T04:24:57.756Z,117.73
2019-03-23T04:27:27.037Z,126.83
2019-03-23T04:29:56.324Z,92.10
2019-03-23T04:32:25.783Z,91.73
2019-03-23T04:34:55.250Z,55.57
2019-03-23T04:37:24.684Z,61.20
2019-03-23T04:39:54.082Z,131.93
2019-03-23T04:42:23.347Z,53.20
2019-03-23T04:44:52.861Z,61.67
2019-03-23T04:47:23.020Z,67.00
2019-03-23T04:49:52.666Z,60.60
2019-03-23T04:52:22.303Z,51.83
2019-03-23T04:54:51.756Z,122.10
2019-03-23T04:57:21.138Z,138.77
2019-03-23T04:59:50.694Z,102.67
2019-03-23T05:02:20.007Z,153.13
2019-03-23T05:04:50.536Z,93.03
2019-03-23T05:07:20.089Z,91.78
2019-03-23T05:09:49.462Z,84.63
2019-03-23T05:12:18.717Z,200.27
2019-03-23T05:14:47.971Z,112.93
2019-03-23T05:17:17.242Z,139.53
2019-03-23T05:19:46.524Z,110.17
2019-03-23T05:22:15.737Z,112.23
2019-03-23T05:24:45.223Z,109.63
2019-03-23T05:27:14.586Z,68.00
2019-03-23T05:29:44.073Z,108.00
2019-03-23T05:32:13.510Z,60.03
2019-03-23T05:34:42.747Z,53.80
2019-03-23T05:37:13.156Z,47.23
2019-03-23T05:39:42.514Z,54.70
2019-03-23T05:42:13.954Z,62.47
2019-03-23T05:44:43.303Z,42.13
2019-03-23T05:47:12.862Z,55.03
2019-03-23T05:49:42.094Z,47.50
2019-03-23T05:52:11.331Z,35.90
2019-03-23T05:54:40.887Z,40.40
2019-03-23T05:57:10.102Z,41.57
2019-03-23T05:59:39.638Z,41.47
2019-03-23T06:02:08.893Z,39.43
2019-03-23T06:04:38.410Z,34.27
2019-03-23T06:07:07.950Z,37.83
2019-03-23T06:09:37.568Z,35.17
2019-03-23T06:12:07.035Z,34.30
2019-03-23T06:14:36.373Z,26.55
2019-03-23T06:17:06.301Z,29.60
2019-03-23T06:19:35.678Z,25.82
2019-03-23T06:22:05.534Z,27.40
2019-03-23T06:24:36.130Z,32.15
2019-03-23T06:27:06.031Z,30.37
2019-03-23T06:29:35.342Z,30.97
2019-03-23T06:32:05.133Z,26.77
2019-03-23T06:34:34.624Z,35.15
2019-03-23T06:37:04.044Z,29.85
2019-03-23T06:39:33.369Z,31.33
2019-03-23T06:42:02.577Z,26.90
2019-03-23T06:44:31.887Z,26.15
2019-03-23T06:47:01.474Z,26.33
2019-03-23T06:49:30.714Z,29.35
2019-03-23T06:52:00.227Z,28.07
2019-03-23T06:54:29.874Z,32.48
2019-03-23T06:56:59.119Z,33.15
2019-03-23T06:59:28.422Z,27.17
2019-03-23T07:01:58.402Z,27.58
2019-03-23T07:04:27.642Z,27.35
2019-03-23T07:06:57.014Z,27.98
2019-03-23T07:09:26.481Z,29.57
2019-03-23T07:11:56.051Z,27.82
2019-03-23T07:14:25.922Z,30.37
2019-03-23T07:16:55.247Z,29.18
2019-03-23T07:19:24.873Z,29.77
2019-03-23T07:21:54.387Z,33.13
2019-03-23T07:24:24.189Z,27.42
2019-03-23T07:26:53.782Z,30.85
2019-03-23T07:29:23.465Z,28.50
2019-03-23T07:31:53.312Z,32.55
2019-03-23T07:34:22.774Z,31.75
2019-03-23T07:36:52.402Z,29.80
2019-03-23T07:39:27.201Z,33.13
2019-03-23T07:41:53.052Z,31.60
2019-03-23T07:44:22.762Z,28.57
2019-03-23T07:46:52.093Z,28.25
2019-03-23T07:49:24.478Z,31.77
2019-03-23T07:51:54.386Z,29.48
2019-03-23T07:54:23.770Z,27.10
2019-03-23T07:56:52.986Z,30.57
2019-03-23T07:59:22.530Z,32.17
2019-03-23T08:01:52.110Z,30.95
2019-03-23T08:04:21.378Z,30.10
2019-03-23T08:06:50.740Z,30.97
2019-03-23T08:09:23.476Z,33.20
2019-03-23T08:11:52.421Z,30.03
2019-03-23T08:14:21.807Z,33.28
2019-03-23T08:16:52.015Z,30.88
2019-03-23T08:19:22.794Z,31.85
2019-03-23T08:21:52.326Z,30.37
2019-03-23T08:24:21.922Z,34.20
2019-03-23T08:26:51.614Z,35.83
2019-03-23T08:29:23.863Z,29.77
2019-03-23T08:31:54.575Z,31.45
2019-03-23T08:34:24.255Z,32.75
2019-03-23T08:36:56.433Z,31.12
2019-03-23T08:39:28.922Z,31.40
2019-03-23T08:41:59.771Z,32.45
2019-03-23T08:44:32.710Z,33.33
2019-03-23T08:47:02.121Z,29.07
2019-03-23T08:49:31.627Z,31.82
2019-03-23T08:52:01.058Z,34.50
2019-03-23T08:54:31.209Z,35.83
2019-03-23T08:57:00.690Z,34.78
2019-03-23T08:59:30.039Z,38.88
2019-03-23T09:01:59.519Z,31.65
2019-03-23T09:04:28.749Z,33.35
2019-03-23T09:06:58.078Z,31.87
2019-03-23T09:09:27.421Z,31.50
2019-03-23T09:11:56.849Z,33.05
2019-03-23T09:14:26.102Z,32.78
2019-03-23T09:16:55.410Z,31.65
2019-03-23T09:19:25.370Z,34.00
2019-03-23T09:21:55.895Z,29.57
2019-03-23T09:24:25.389Z,29.67
2019-03-23T09:26:57.682Z,31.15
2019-03-23T09:29:26.984Z,32.40
2019-03-23T09:31:56.561Z,35.13
2019-03-23T09:34:26.357Z,29.40
2019-03-23T09:36:55.651Z,29.75
2019-03-23T09:39:25.036Z,27.02
2019-03-23T09:41:54.640Z,28.93
2019-03-23T09:44:24.491Z,29.05
2019-03-23T09:46:53.840Z,30.82
2019-03-23T09:49:23.321Z,33.18
2019-03-23T09:51:52.658Z,33.53
2019-03-23T09:54:22.531Z,30.62
2019-03-23T09:56:51.857Z,37.30
2019-03-23T09:59:21.142Z,30.27
2019-03-23T10:01:50.559Z,32.28
2019-03-23T10:04:19.853Z,26.45
2019-03-23T10:06:51.558Z,29.70
2019-03-23T10:09:21.179Z,32.33
2019-03-23T10:11:50.418Z,32.53
2019-03-23T10:14:19.720Z,33.33
2019-03-23T10:16:49.096Z,35.60
2019-03-23T10:19:20.352Z,33.07
2019-03-23T10:21:49.494Z,31.42
2019-03-23T10:24:18.938Z,35.10
2019-03-23T10:26:48.422Z,36.23
2019-03-23T10:29:17.845Z,38.87
2019-03-23T10:31:47.226Z,33.98
2019-03-23T10:34:16.425Z,32.30
2019-03-23T10:36:45.957Z,34.45
2019-03-23T10:39:15.599Z,43.40
2019-03-23T10:41:45.124Z,38.42
2019-03-23T10:44:14.570Z,36.55
2019-03-23T10:46:44.451Z,38.75
2019-03-23T10:49:14.399Z,37.63
2019-03-23T10:51:43.759Z,36.00
2019-03-23T10:54:13.350Z,38.20
2019-03-23T10:56:42.646Z,40.08
2019-03-23T10:59:11.854Z,51.10
2019-03-23T11:01:41.312Z,37.33
2019-03-23T11:04:11.020Z,35.55
2019-03-23T11:06:40.381Z,39.60
2019-03-23T11:09:09.745Z,42.05
2019-03-23T11:11:39.037Z,42.10
2019-03-23T11:14:08.306Z,41.20
2019-03-23T11:16:38.159Z,46.13
2019-03-23T11:19:13.308Z,41.10
2019-03-23T11:21:38.946Z,50.25
2019-03-23T11:24:08.293Z,48.40
2019-03-23T11:26:37.995Z,48.83
2019-03-23T11:29:08.418Z,54.18
2019-03-23T11:31:37.986Z,45.20
2019-03-23T11:34:07.197Z,47.48
2019-03-23T11:36:36.395Z,47.98
2019-03-23T11:39:07.934Z,54.77
2019-03-23T11:41:37.146Z,45.75
2019-03-23T11:44:09.691Z,49.88
2019-03-23T11:46:39.499Z,54.45
2019-03-23T11:49:08.984Z,63.97
2019-03-23T11:51:38.315Z,63.80
2019-03-23T11:54:07.802Z,57.73
2019-03-23T11:56:37.346Z,54.33
2019-03-23T11:59:06.865Z,54.90
2019-03-23T12:01:36.249Z,59.05
2019-03-23T12:04:05.555Z,53.40
2019-03-23T12:06:35.434Z,46.90
2019-03-23T12:09:07.144Z,45.27
2019-03-23T12:11:36.557Z,47.00
2019-03-23T12:14:06.113Z,50.30
2019-03-23T12:16:35.520Z,48.28
2019-03-23T12:19:05.091Z,53.23
2019-03-23T12:21:34.442Z,49.38
2019-03-23T12:24:04.175Z,48.87
2019-03-23T12:26:33.859Z,60.20
2019-03-23T12:29:03.363Z,52.80
2019-03-23T12:31:32.665Z,54.30
2019-03-23T12:34:02.031Z,49.85
2019-03-23T12:36:31.468Z,45.10
2019-03-23T12:39:01.160Z,46.00
2019-03-23T12:41:30.995Z,46.48
2019-03-23T12:44:00.462Z,55.67
2019-03-23T12:46:29.799Z,61.10
2019-03-23T12:48:59.149Z,51.73
2019-03-23T12:51:28.578Z,54.05
2019-03-23T12:53:58.450Z,56.05
2019-03-23T12:56:27.768Z,55.08
2019-03-23T12:58:57.505Z,51.70
2019-03-23T13:01:26.831Z,48.58
2019-03-23T13:03:56.549Z,54.70
2019-03-23T13:06:25.783Z,52.03
2019-03-23T13:08:56.556Z,56.25
2019-03-23T13:11:34.742Z,50.15
2019-03-23T13:13:57.235Z,53.15
2019-03-23T13:16:30.035Z,52.40
2019-03-23T13:18:59.813Z,58.63
2019-03-23T13:21:29.039Z,54.07
2019-03-23T13:23:58.485Z,56.48
2019-03-23T13:26:27.883Z,55.55
2019-03-23T13:28:57.217Z,48.92
2019-03-23T13:31:26.862Z,45.40
2019-03-23T13:33:56.273Z,54.05
2019-03-23T13:36:26.284Z,55.00
2019-03-23T13:38:55.562Z,50.83
2019-03-23T13:41:25.050Z,45.30
2019-03-23T13:44:03.084Z,48.78
2019-03-23T13:46:32.471Z,45.15
2019-03-23T13:49:02.069Z,44.98
2019-03-23T13:51:31.389Z,45.73
2019-03-23T13:54:00.844Z,41.48
2019-03-23T13:56:30.537Z,42.03
2019-03-23T13:59:00.173Z,47.10
2019-03-23T14:01:31.215Z,50.70
2019-03-23T14:04:01.765Z,45.00
2019-03-23T14:06:31.718Z,44.45
2019-03-23T14:09:01.175Z,45.58
2019-03-23T14:11:30.761Z,44.53
2019-03-23T14:14:00.165Z,40.90
2019-03-23T14:16:29.564Z,41.65
2019-03-23T14:18:58.804Z,40.80
2019-03-23T14:21:28.316Z,38.83
2019-03-23T14:23:57.697Z,45.48
2019-03-23T14:26:26.913Z,35.73
2019-03-23T14:28:56.188Z,35.73
2019-03-23T14:31:25.949Z,38.08
2019-03-23T14:33:55.512Z,41.68
2019-03-23T14:36:25.279Z,38.35
2019-03-23T14:38:54.786Z,42.88
2019-03-23T14:41:24.088Z,45.40
2019-03-23T14:43:55.739Z,37.60
2019-03-23T14:46:26.698Z,38.67
2019-03-23T14:49:01.598Z,42.15
2019-03-23T14:51:27.634Z,42.60
2019-03-23T14:53:57.273Z,40.60
2019-03-23T14:56:31.671Z,39.60
2019-03-23T14:58:57.739Z,40.75
2019-03-23T15:01:27.084Z,41.85
2019-03-23T15:03:56.506Z,46.50
2019-03-23T15:06:25.907Z,50.25
2019-03-23T15:08:55.258Z,46.45
2019-03-23T15:11:24.842Z,47.43
2019-03-23T15:13:54.472Z,43.78
2019-03-23T15:16:23.706Z,45.50
2019-03-23T15:18:52.969Z,43.08
2019-03-23T15:21:22.475Z,44.98
2019-03-23T15:23:52.069Z,33.85
2019-03-23T15:26:21.376Z,40.90
2019-03-23T15:28:52.902Z,46.90
2019-03-23T15:31:22.207Z,47.30
2019-03-23T15:33:51.495Z,44.60
2019-03-23T15:36:20.755Z,43.70
2019-03-23T15:38:50.083Z,43.05
2019-03-23T15:41:19.555Z,47.58
2019-03-23T15:43:48.885Z,44.38
2019-03-23T15:46:18.597Z,41.50
2019-03-23T15:48:48.058Z,41.15
2019-03-23T15:51:17.300Z,51.80
2019-03-23T15:53:47.118Z,40.45
2019-03-23T15:56:16.418Z,42.50
2019-03-23T15:58:45.669Z,39.10
2019-03-23T16:01:15.066Z,40.70
2019-03-23T16:03:44.527Z,39.63
2019-03-23T16:06:13.895Z,33.95
2019-03-23T16:08:43.512Z,41.63
2019-03-23T16:11:12.816Z,39.75
2019-03-23T16:13:42.098Z,36.90
2019-03-23T16:16:11.372Z,38.42
2019-03-23T16:18:40.792Z,38.17
2019-03-23T16:21:10.202Z,38.20
2019-03-23T16:23:40.442Z,37.33
2019-03-23T16:26:09.749Z,33.42
2019-03-23T16:28:39.174Z,36.00
2019-03-23T16:31:08.782Z,37.05
2019-03-23T16:33:38.112Z,35.05
2019-03-23T16:36:09.914Z,37.60
2019-03-23T16:38:39.788Z,32.73
2019-03-23T16:41:09.293Z,34.38
2019-03-23T16:43:38.533Z,26.05
2019-03-23T16:46:08.955Z,29.85
2019-03-23T16:48:38.191Z,28.52
2019-03-23T16:51:08.616Z,29.52
2019-03-23T16:53:38.306Z,28.02
2019-03-23T16:56:07.794Z,28.25
2019-03-23T16:58:37.146Z,24.67
2019-03-23T17:01:09.727Z,28.83
2019-03-23T17:03:38.940Z,26.37
2019-03-23T17:06:08.294Z,27.07
2019-03-23T17:08:37.598Z,24.65
2019-03-23T17:11:07.251Z,24.63
2019-03-23T17:13:36.515Z,21.57
2019-03-23T17:16:05.826Z,19.07
2019-03-23T17:18:35.329Z,18.10
2019-03-23T17:21:04.629Z,22.15
2019-03-23T17:23:33.903Z,21.93
2019-03-23T17:26:03.117Z,24.37
2019-03-23T17:28:32.838Z,19.10
2019-03-23T17:31:02.208Z,18.85
2019-03-23T17:33:31.678Z,24.90
2019-03-23T17:36:01.207Z,25.20
2019-03-23T17:38:30.914Z,23.95
2019-03-23T17:41:00.493Z,21.12
2019-03-23T17:43:30.119Z,20.12
2019-03-23T17:45:59.410Z,17.92
2019-03-23T17:48:28.891Z,22.60
2019-03-23T17:50:58.201Z,22.67
2019-03-23T17:53:28.433Z,21.23
2019-03-23T17:55:59.550Z,24.80
2019-03-23T17:58:28.842Z,28.35
2019-03-23T18:00:58.551Z,23.50
2019-03-23T18:03:27.925Z,22.45
2019-03-23T18:05:57.570Z,21.52
2019-03-23T18:08:27.167Z,20.75
2019-03-23T18:10:56.795Z,24.32
2019-03-23T18:13:26.717Z,21.93
2019-03-23T18:15:56.225Z,19.82
2019-03-23T18:18:25.697Z,17.95
2019-03-23T18:20:55.039Z,18.87
2019-03-23T18:23:24.975Z,18.67
2019-03-23T18:25:54.331Z,16.87
2019-03-23T18:28:23.651Z,22.32
2019-03-23T18:30:53.005Z,24.35
2019-03-23T18:33:22.949Z,19.30
2019-03-23T18:35:52.930Z,18.23
2019-03-23T18:38:22.477Z,20.17
2019-03-23T18:40:51.870Z,15.48
2019-03-23T18:43:27.430Z,21.33
2019-03-23T18:45:53.956Z,27.05
2019-03-23T18:48:23.206Z,25.50
2019-03-23T18:50:52.506Z,27.53
2019-03-23T18:53:23.920Z,22.70
2019-03-23T18:55:53.095Z,25.52
2019-03-23T18:58:22.330Z,24.32
2019-03-23T19:00:51.703Z,25.80
2019-03-23T19:03:21.147Z,26.20
2019-03-23T19:05:51.753Z,29.37
2019-03-23T19:08:21.140Z,30.17
2019-03-23T19:10:50.445Z,30.45
2019-03-23T19:13:19.798Z,26.57
2019-03-23T19:15:49.200Z,30.95
2019-03-23T19:18:18.465Z,33.18
2019-03-23T19:20:48.463Z,25.77
2019-03-23T19:23:17.921Z,29.57
2019-03-23T19:25:47.257Z,33.95
2019-03-23T19:28:16.774Z,33.25
2019-03-23T19:30:46.337Z,34.48
2019-03-23T19:33:16.241Z,36.95
2019-03-23T19:35:46.004Z,37.28
2019-03-23T19:38:20.342Z,39.50
2019-03-23T19:40:49.877Z,48.45
2019-03-23T19:43:19.745Z,42.10
2019-03-23T19:45:49.473Z,39.80
2019-03-23T19:48:18.694Z,40.03
2019-03-23T19:50:49.513Z,43.40
2019-03-23T19:53:21.017Z,46.35
2019-03-23T19:55:51.588Z,48.50
2019-03-23T19:58:21.427Z,43.40
2019-03-23T20:00:50.799Z,51.20
2019-03-23T20:03:20.368Z,42.17
2019-03-23T20:05:49.648Z,46.90
2019-03-23T20:08:19.221Z,43.95
2019-03-23T20:10:48.539Z,50.40
2019-03-23T20:13:17.982Z,47.45
2019-03-23T20:15:47.522Z,43.87
2019-03-23T20:18:19.590Z,53.48
2019-03-23T20:20:48.951Z,44.50
2019-03-23T20:23:24.364Z,56.13
2019-03-23T20:25:53.954Z,45.53
2019-03-23T20:28:23.720Z,48.30
2019-03-23T20:30:53.529Z,49.55
2019-03-23T20:33:23.070Z,49.00
2019-03-23T20:35:52.638Z,49.48
2019-03-23T20:38:22.040Z,45.95
2019-03-23T20:40:51.562Z,49.80
2019-03-23T20:43:21.237Z,47.00
2019-03-23T20:45:51.609Z,39.42
2019-03-23T20:48:23.913Z,47.13
2019-03-23T20:50:53.549Z,42.70
2019-03-23T20:53:22.831Z,47.43
2019-03-23T20:55:52.228Z,42.63
2019-03-23T20:58:22.558Z,49.18
2019-03-23T21:00:53.204Z,49.55
2019-03-23T21:03:22.558Z,45.10
2019-03-23T21:05:51.949Z,41.08
2019-03-23T21:08:21.315Z,39.73
2019-03-23T21:10:51.234Z,40.58
2019-03-23T21:13:20.880Z,43.17
2019-03-23T21:15:51.284Z,48.95
2019-03-23T21:18:20.570Z,50.70
2019-03-23T21:20:53.067Z,50.52
2019-03-23T21:23:22.398Z,45.55
2019-03-23T21:25:52.007Z,48.87
2019-03-23T21:28:21.905Z,47.13
2019-03-23T21:30:51.341Z,50.10
2019-03-23T21:33:20.753Z,38.50
2019-03-23T21:35:49.996Z,44.63
2019-03-23T21:38:19.265Z,41.23
2019-03-23T21:40:49.630Z,43.00
2019-03-23T21:43:19.250Z,36.10
2019-03-23T21:45:48.773Z,44.00
2019-03-23T21:48:18.065Z,42.03
2019-03-23T21:50:47.966Z,44.67
2019-03-23T21:53:18.040Z,38.23
2019-03-23T21:55:47.370Z,36.40
2019-03-23T21:58:16.662Z,38.87
2019-03-23T22:00:46.016Z,37.97
2019-03-23T22:03:25.968Z,40.80
2019-03-23T22:05:57.049Z,46.33
2019-03-23T22:08:26.384Z,39.10
2019-03-23T22:10:55.730Z,38.67
2019-03-23T22:13:25.085Z,41.10
2019-03-23T22:15:55.436Z,41.30
2019-03-23T22:18:27.980Z,36.47
2019-03-23T22:20:57.926Z,38.67
2019-03-23T22:23:30.581Z,40.70
2019-03-23T22:25:59.893Z,43.48
2019-03-23T22:28:33.838Z,50.97
2019-03-23T22:31:03.142Z,44.53
2019-03-23T22:33:32.371Z,46.17
2019-03-23T22:36:01.710Z,37.93
2019-03-23T22:38:31.254Z,43.37
2019-03-23T22:41:00.458Z,44.43
2019-03-23T22:43:30.146Z,40.47
2019-03-23T22:45:59.447Z,45.80
2019-03-23T22:48:28.689Z,52.20
2019-03-23T22:50:58.058Z,45.40
2019-03-23T22:53:27.387Z,52.10
2019-03-23T22:55:56.683Z,49.87
2019-03-23T22:58:26.733Z,55.13
2019-03-23T23:00:56.659Z,53.87
2019-03-23T23:03:26.901Z,55.17
2019-03-23T23:05:56.626Z,51.27
2019-03-23T23:08:26.256Z,55.63
2019-03-23T23:10:55.578Z,52.20
2019-03-23T23:13:25.569Z,52.33
2019-03-23T23:16:01.025Z,50.10
2019-03-23T23:18:30.459Z,47.87
2019-03-23T23:21:00.038Z,58.70
2019-03-23T23:23:38.366Z,48.37
2019-03-23T23:26:07.740Z,56.03
2019-03-23T23:28:37.087Z,53.20
2019-03-23T23:31:06.566Z,53.77
2019-03-23T23:33:36.119Z,51.40
2019-03-23T23:36:05.687Z,57.03
2019-03-23T23:38:35.125Z,51.13
2019-03-23T23:41:04.697Z,60.63
2019-03-23T23:43:33.929Z,56.50
2019-03-23T23:46:03.281Z,54.93
2019-03-23T23:48:32.586Z,58.00
2019-03-23T23:51:01.819Z,54.13
2019-03-23T23:53:31.054Z,49.93
2019-03-23T23:56:00.638Z,55.13
2019-03-23T23:58:29.954Z,54.63
